Time,TemperatureF,DewpointF,PressureIn,WindDirection,WindDirectionDegrees,WindSpeedMPH,WindSpeedGustMPH,Humidity,HourlyPrecipIn,Conditions,Clouds,dailyrainin,SoftwareType,DateUTC
2013-07-10 00:28:00,75.8,66.1,29.80,WNW,292,7.0,7.0,72,0.00,,,0.00,Wunderground v.1.15,2013-07-10 05:28:00,
2013-07-10 00:58:00,75.1,65.9,29.80,West,277,9.0,9.0,73,0.00,,,0.00,Wunderground v.1.15,2013-07-10 05:58:00,
2013-07-10 01:28:00,74.6,65.8,29.81,WNW,292,7.0,10.0,74,0.00,,,0.00,Wunderground v.1.15,2013-07-10 06:28:00,
2013-07-10 01:58:00,73.2,65.2,29.82,NW,324,8.0,8.0,76,0.00,,,0.00,Wunderground v.1.15,2013-07-10 06:58:00,
2013-07-10 02:28:00,72.1,64.9,29.83,WNW,288,8.0,8.0,78,0.00,,,0.00,Wunderground v.1.15,2013-07-10 07:28:00,
2013-07-10 02:59:00,70.8,64.0,29.84,WNW,296,8.0,12.0,79,0.00,,,0.00,Wunderground v.1.15,2013-07-10 07:59:00,
2013-07-10 03:28:00,69.8,63.3,29.84,WNW,284,7.0,7.0,80,0.00,,,0.00,Wunderground v.1.15,2013-07-10 08:28:00,
2013-07-10 03:58:00,69.1,62.3,29.86,WNW,298,6.0,6.0,79,0.00,,,0.00,Wunderground v.1.15,2013-07-10 08:58:00,
2013-07-10 04:28:00,67.9,60.4,29.87,NW,325,8.0,11.0,77,0.00,,,0.00,Wunderground v.1.15,2013-07-10 09:28:00,
2013-07-10 04:58:00,67.1,61.4,29.88,NW,307,6.0,6.0,82,0.00,,,0.00,Wunderground v.1.15,2013-07-10 09:58:00,
2013-07-10 05:28:00,66.4,60.4,29.89,NNW,327,7.0,7.0,81,0.00,,,0.00,Wunderground v.1.15,2013-07-10 10:28:00,
2013-07-10 05:58:00,66.0,59.3,29.91,NNW,346,10.0,10.0,79,0.00,,,0.00,Wunderground v.1.15,2013-07-10 10:58:00,
2013-07-10 06:28:00,65.3,57.5,29.92,WNW,301,9.0,9.0,76,0.00,,,0.00,Wunderground v.1.15,2013-07-10 11:28:00,
2013-07-10 06:58:00,65.0,56.9,29.92,NW,326,10.0,10.0,75,0.00,,,0.00,Wunderground v.1.15,2013-07-10 11:58:00,
2013-07-10 07:28:00,64.8,55.6,29.93,NW,315,10.0,10.0,72,0.00,,,0.00,Wunderground v.1.15,2013-07-10 12:28:00,
2013-07-10 07:58:00,65.2,55.9,29.94,WNW,302,10.0,15.0,72,0.00,,,0.00,Wunderground v.1.15,2013-07-10 12:58:00,
2013-07-10 08:28:00,66.0,55.5,29.94,NNW,328,10.0,10.0,69,0.00,,,0.00,Wunderground v.1.15,2013-07-10 13:28:00,
2013-07-10 08:58:00,66.8,55.5,29.93,NW,309,11.0,11.0,67,0.00,,,0.00,Wunderground v.1.15,2013-07-10 13:58:00,
2013-07-10 09:28:00,67.8,54.3,29.94,WNW,296,14.0,14.0,62,0.00,,,0.00,Wunderground v.1.15,2013-07-10 14:28:00,
2013-07-10 09:58:00,68.9,52.6,29.94,NW,312,13.0,14.0,56,0.00,,,0.00,Wunderground v.1.15,2013-07-10 14:58:00,
2013-07-10 10:28:00,69.4,52.5,29.94,NW,325,16.0,16.0,55,0.00,,,0.00,Wunderground v.1.15,2013-07-10 15:28:00,
2013-07-10 10:58:00,71.1,52.6,29.94,NW,307,11.0,16.0,52,0.00,,,0.00,Wunderground v.1.15,2013-07-10 15:58:00,
2013-07-10 11:28:00,71.3,50.6,29.94,NW,326,13.0,13.0,48,0.00,,,0.00,Wunderground v.1.15,2013-07-10 16:28:00,
2013-07-10 11:59:00,72.1,51.9,29.94,NW,321,12.0,12.0,49,0.00,,,0.00,Wunderground v.1.15,2013-07-10 16:59:00,
2013-07-10 12:28:00,73.0,49.2,29.94,NW,321,13.0,16.0,43,0.00,,,0.00,Wunderground v.1.15,2013-07-10 17:28:00,
2013-07-10 12:58:00,73.5,50.2,29.94,NW,317,12.0,13.0,44,0.00,,,0.00,Wunderground v.1.15,2013-07-10 17:58:00,
2013-07-10 13:28:00,73.5,50.2,29.94,NNW,336,12.0,12.0,44,0.00,,,0.00,Wunderground v.1.15,2013-07-10 18:28:00,
2013-07-10 13:58:00,74.0,50.7,29.95,North,5,12.0,12.0,44,0.00,,,0.00,Wunderground v.1.15,2013-07-10 18:58:00,
2013-07-10 14:28:00,74.0,50.1,29.95,NNW,343,13.0,13.0,43,0.00,,,0.00,Wunderground v.1.15,2013-07-10 19:28:00,
2013-07-10 14:58:00,74.4,51.1,29.95,North,355,10.0,10.0,44,0.00,,,0.00,Wunderground v.1.15,2013-07-10 19:58:00,
2013-07-10 15:28:00,74.7,50.7,29.95,West,281,9.0,12.0,43,0.00,,,0.00,Wunderground v.1.15,2013-07-10 20:28:00,
2013-07-10 15:58:00,75.3,48.6,29.95,NW,310,9.0,9.0,39,0.00,,,0.00,Wunderground v.1.15,2013-07-10 20:58:00,
2013-07-10 16:28:00,75.6,50.2,29.95,North,355,8.0,12.0,41,0.00,,,0.00,Wunderground v.1.15,2013-07-10 21:28:00,
2013-07-10 16:58:00,76.5,50.4,29.94,WNW,289,9.0,10.0,40,0.00,,,0.00,Wunderground v.1.15,2013-07-10 21:58:00,
2013-07-10 17:28:00,76.8,51.3,29.94,NNW,336,9.0,9.0,41,0.00,,,0.00,Wunderground v.1.15,2013-07-10 22:28:00,
2013-07-10 17:58:00,76.5,50.4,29.93,NW,316,10.0,10.0,40,0.00,,,0.00,Wunderground v.1.15,2013-07-10 22:58:00,
2013-07-10 18:28:00,76.7,50.6,29.93,NW,311,7.0,9.0,40,0.00,,,0.00,Wunderground v.1.15,2013-07-10 23:28:00,
2013-07-10 18:58:00,76.3,50.9,29.93,WNW,303,6.0,9.0,41,0.00,,,0.00,Wunderground v.1.15,2013-07-10 23:58:00,
2013-07-10 19:28:00,76.7,51.9,29.94,NW,311,4.0,4.0,42,0.00,,,0.00,Wunderground v.1.15,2013-07-11 00:28:00,
2013-07-10 19:58:00,76.3,52.8,29.94,WNW,289,3.0,3.0,44,0.00,,,0.00,Wunderground v.1.15,2013-07-11 00:58:00,
2013-07-10 20:28:00,75.6,52.8,29.94,WNW,300,1.0,2.0,45,0.00,,,0.00,Wunderground v.1.15,2013-07-11 01:28:00,
2013-07-10 20:58:00,74.2,53.2,29.94,WNW,300,0.0,0.0,48,0.00,,,0.00,Wunderground v.1.15,2013-07-11 01:58:00,
2013-07-10 21:28:00,72.8,54.7,29.95,WNW,300,0.0,0.0,53,0.00,,,0.00,Wunderground v.1.15,2013-07-11 02:28:00,
2013-07-10 21:58:00,71.3,56.7,29.96,WNW,298,1.0,1.0,60,0.00,,,0.00,Wunderground v.1.15,2013-07-11 02:58:00,
2013-07-10 22:28:00,69.4,57.5,29.96,WNW,298,0.0,0.0,66,0.00,,,0.00,Wunderground v.1.15,2013-07-11 03:28:00,
2013-07-10 22:58:00,68.3,57.3,29.97,WNW,298,0.0,0.0,68,0.00,,,0.00,Wunderground v.1.15,2013-07-11 03:58:00,
2013-07-10 23:28:00,67.3,57.6,29.98,WNW,298,0.0,0.0,71,0.00,,,0.00,Wunderground v.1.15,2013-07-11 04:28:00,
2013-07-10 23:58:00,66.6,56.9,29.98,WNW,298,0.0,0.0,71,0.00,,,0.00,Wunderground v.1.15,2013-07-11 04:58:00,